This is the latest recevied weather packets stored in our database for station/object KC3ROS. If no packets are shown the sender has not sent any weather packets the latest 10 day(s).
| Time | Temp. | Humidity | Pressure | Rain* | Wind** | Luminosity | Snow |
|---|---|---|---|---|---|---|---|
| 1778089105 | 10.56° C | 89% | 1009.1 hPa | 0 mm | - | 129 W/m² | - |
| 1778088802 | 11.11° C | 88% | 1009.1 hPa | 0 mm | - | 113 W/m² | - |
| 1778088499 | 10.56° C | 89% | 1009 hPa | 0 mm | - | 204 W/m² | - |
| 1778088195 | 10° C | 91% | 1009 hPa | 0 mm | - | 264 W/m² | - |
| 1778087893 | 10.56° C | 93% | 1009.3 hPa | 0 mm | - | 187 W/m² | - |
| 1778087590 | 10° C | 92% | 1009.2 hPa | 0 mm | - | 124 W/m² | - |
| 1778087288 | 10.56° C | 93% | 1009.1 hPa | 0 mm | - | 102 W/m² | - |
| 1778086983 | 10.56° C | 93% | 1009.4 hPa | 0 mm | - | 96 W/m² | - |
| 1778086682 | 10.56° C | 92% | 1008.9 hPa | 0 mm | - | 99 W/m² | - |
| 1778086379 | 10.56° C | 92% | 1008.9 hPa | 0 mm | - | 124 W/m² | - |
| 1778086076 | 10.56° C | 92% | 1009.1 hPa | 0 mm | - | 117 W/m² | - |
| 1778085773 | 10.56° C | 93% | 1009 hPa | 0 mm | - | 166 W/m² | - |
| 1778085470 | 10.56° C | 97% | 1009.1 hPa | 0 mm | - | 234 W/m² | - |
| 1778085164 | 9.44° C | 99% | 1008.9 hPa | 0 mm | - | 442 W/m² | - |
| 1778084861 | 8.89° C | 99% | 1008.9 hPa | 0 mm | - | 389 W/m² | - |
| 1778084558 | 9.44° C | 99% | 1008.8 hPa | 0 mm | - | 158 W/m² | - |
| 1778084250 | 8.89° C | 99% | 1008.8 hPa | 0 mm | - | 113 W/m² | - |
| 1778083947 | 9.44° C | 99% | 1008.7 hPa | 0 mm | - | 63 W/m² | - |
| 1778083645 | 8.89° C | 99% | 1008.6 hPa | 0 mm | - | 75 W/m² | - |
| 1778083341 | 8.89° C | 99% | 1008.8 hPa | 0 mm | - | 192 W/m² | - |
| 1778083040 | 8.89° C | 99% | 1008.7 hPa | 0 mm | - | 182 W/m² | - |
| 1778082736 | 8.89° C | 99% | 1008.5 hPa | 0 mm | - | 113 W/m² | - |
| 1778081598 | 8.89° C | 99% | 1008.2 hPa | 0 mm | - | 106 W/m² | - |
| 1778081295 | 8.89° C | 99% | 1008.4 hPa | 0 mm | - | 88 W/m² | - |
| 1778080992 | 8.33° C | 99% | 1008 hPa | 0 mm | - | 118 W/m² | - |
* Rain latest hour (hover to see other rain measurements)
** Current wind speed in m/s (hover to see current wind gust speed)